AFR612 LHBP-LFPG
Flight info
| Callsign | AFR612 |
|---|---|
| Flight time | 1h 56m |
| Altitude | 36000 |
| Route | GILEP DCT ZOLKU DCT BEGLA DCT LAMSI DCT MAMOR DCT ASPAT DCT VIBOM DCT BETEX DCT IDOSA UN857 TOLVU/N0448F370 DCT RAPOR DCT VEDUS |
| Aircraft | A321/M-SDE3FGHIRWY/LB1 |
Departure
| Time | 2026-05-08 17:11 |
|---|---|
| Airport | Budapest Liszt Ferenc International Airport (LHBP) |
Arrival
| Time | 2026-05-08 19:08 |
|---|---|
| Airport | Charles de Gaulle International Airport (LFPG) |
| Time | Latitude | Longitude | Altitude | Speed | Heading |
|---|---|---|---|---|---|
| 2026-05-08 16:44 | 47.43450 | 19.26169 | 458 ft | 0 kts | 177° |
| 2026-05-08 16:45 | 47.43449 | 19.26169 | 458 ft | 0 kts | 177° |
| 2026-05-08 17:02 | 47.43464 | 19.26168 | 457 ft | 4 kts | 177° |
| 2026-05-08 17:03 | 47.43491 | 19.26166 | 457 ft | 4 kts | 177° |
| 2026-05-08 17:03 | 47.43518 | 19.26165 | 455 ft | 4 kts | 177° |
| 2026-05-08 17:03 | 47.43540 | 19.26163 | 457 ft | 4 kts | 180° |
| 2026-05-08 17:03 | 47.43565 | 19.26171 | 457 ft | 4 kts | 212° |
| 2026-05-08 17:04 | 47.43585 | 19.26192 | 455 ft | 1 kts | 220° |
| 2026-05-08 17:04 | 47.43588 | 19.26197 | 456 ft | 0 kts | 220° |
| 2026-05-08 17:06 | 47.43571 | 19.26176 | 457 ft | 8 kts | 220° |
| 2026-05-08 17:07 | 47.43511 | 19.26096 | 457 ft | 12 kts | 223° |
| 2026-05-08 17:07 | 47.43450 | 19.26014 | 457 ft | 11 kts | 223° |
| 2026-05-08 17:07 | 47.43422 | 19.25939 | 457 ft | 8 kts | 289° |
| 2026-05-08 17:07 | 47.43455 | 19.25880 | 457 ft | 8 kts | 314° |
| 2026-05-08 17:08 | 47.43479 | 19.25825 | 457 ft | 0 kts | 269° |
| 2026-05-08 17:08 | 47.43508 | 19.25771 | 457 ft | 16 kts | 314° |
| 2026-05-08 17:08 | 47.43546 | 19.25665 | 457 ft | 10 kts | 250° |
| 2026-05-08 17:08 | 47.43502 | 19.25598 | 457 ft | 9 kts | 221° |
| 2026-05-08 17:09 | 47.43444 | 19.25521 | 455 ft | 16 kts | 222° |
| 2026-05-08 17:09 | 47.43359 | 19.25407 | 457 ft | 16 kts | 222° |
| 2026-05-08 17:09 | 47.43277 | 19.25297 | 457 ft | 16 kts | 222° |
| 2026-05-08 17:09 | 47.43199 | 19.25192 | 457 ft | 15 kts | 222° |
| 2026-05-08 17:10 | 47.43124 | 19.25093 | 457 ft | 14 kts | 222° |
| 2026-05-08 17:10 | 47.43063 | 19.25004 | 457 ft | 4 kts | 250° |
| 2026-05-08 17:10 | 47.43079 | 19.24973 | 457 ft | 4 kts | 313° |
| 2026-05-08 17:10 | 47.43171 | 19.24826 | 456 ft | 50 kts | 312° |
| 2026-05-08 17:11 | 47.43566 | 19.24191 | 453 ft | 114 kts | 312° |
| 2026-05-08 17:11 | 47.44219 | 19.23140 | 458 ft | 161 kts | 312° |
| 2026-05-08 17:11 | 47.44984 | 19.21915 | 1024 ft | 161 kts | 313° |
| 2026-05-08 17:11 | 47.45726 | 19.20704 | 1651 ft | 161 kts | 313° |
| 2026-05-08 17:12 | 47.46484 | 19.19476 | 2253 ft | 162 kts | 312° |
| 2026-05-08 17:12 | 47.47233 | 19.18234 | 2830 ft | 162 kts | 312° |
| 2026-05-08 17:12 | 47.47985 | 19.16994 | 3418 ft | 161 kts | 312° |
| 2026-05-08 17:12 | 47.48626 | 19.15609 | 3838 ft | 172 kts | 297° |
| 2026-05-08 17:13 | 47.49066 | 19.13840 | 4050 ft | 195 kts | 283° |
| 2026-05-08 17:13 | 47.49167 | 19.11737 | 4233 ft | 218 kts | 266° |
| 2026-05-08 17:13 | 47.48787 | 19.09436 | 4434 ft | 245 kts | 248° |
| 2026-05-08 17:13 | 47.47810 | 19.07233 | 4839 ft | 267 kts | 226° |
| 2026-05-08 17:14 | 47.46276 | 19.05627 | 5506 ft | 275 kts | 204° |
| 2026-05-08 17:14 | 47.44447 | 19.04711 | 6267 ft | 280 kts | 198° |
| 2026-05-08 17:14 | 47.42583 | 19.03844 | 7062 ft | 282 kts | 198° |
| 2026-05-08 17:14 | 47.40708 | 19.02965 | 7840 ft | 284 kts | 199° |
| 2026-05-08 17:15 | 47.38820 | 19.02076 | 8623 ft | 286 kts | 199° |
| 2026-05-08 17:15 | 47.36924 | 19.01166 | 9417 ft | 287 kts | 201° |
| 2026-05-08 17:15 | 47.35108 | 18.99929 | 10164 ft | 289 kts | 208° |
| 2026-05-08 17:15 | 47.33307 | 18.98391 | 10405 ft | 310 kts | 216° |
| 2026-05-08 17:16 | 47.31665 | 18.96203 | 10617 ft | 328 kts | 232° |
| 2026-05-08 17:16 | 47.30599 | 18.93214 | 11137 ft | 334 kts | 254° |
| 2026-05-08 17:16 | 47.30433 | 18.89810 | 11748 ft | 338 kts | 278° |
| 2026-05-08 17:16 | 47.31233 | 18.86544 | 12387 ft | 343 kts | 297° |
| 2026-05-08 17:17 | 47.32404 | 18.83462 | 13050 ft | 346 kts | 298° |
| 2026-05-08 17:17 | 47.33594 | 18.80359 | 13721 ft | 349 kts | 297° |
| 2026-05-08 17:17 | 47.34792 | 18.77225 | 14328 ft | 352 kts | 297° |
| 2026-05-08 17:17 | 47.35993 | 18.74060 | 14914 ft | 355 kts | 297° |
| 2026-05-08 17:18 | 47.37201 | 18.70865 | 15511 ft | 357 kts | 297° |
| 2026-05-08 17:18 | 47.38409 | 18.67654 | 16095 ft | 360 kts | 297° |
| 2026-05-08 17:18 | 47.39607 | 18.64455 | 16677 ft | 362 kts | 297° |
| 2026-05-08 17:18 | 47.40823 | 18.61194 | 17252 ft | 364 kts | 297° |
| 2026-05-08 17:19 | 47.41860 | 18.57781 | 17826 ft | 365 kts | 287° |
| 2026-05-08 17:19 | 47.42595 | 18.54194 | 18369 ft | 366 kts | 285° |
| 2026-05-08 17:19 | 47.43328 | 18.50577 | 18851 ft | 368 kts | 285° |
| 2026-05-08 17:19 | 47.44067 | 18.46944 | 19323 ft | 371 kts | 285° |
| 2026-05-08 17:20 | 47.44813 | 18.43283 | 19774 ft | 373 kts | 285° |
| 2026-05-08 17:20 | 47.45561 | 18.39601 | 20212 ft | 375 kts | 285° |
| 2026-05-08 17:20 | 47.46314 | 18.35899 | 20644 ft | 378 kts | 285° |
| 2026-05-08 17:20 | 47.47073 | 18.32172 | 21057 ft | 380 kts | 285° |
| 2026-05-08 17:21 | 47.47834 | 18.28423 | 21460 ft | 382 kts | 285° |
| 2026-05-08 17:21 | 47.48589 | 18.24647 | 21869 ft | 384 kts | 284° |
| 2026-05-08 17:21 | 47.49278 | 18.20820 | 22274 ft | 386 kts | 283° |
| 2026-05-08 17:21 | 47.49914 | 18.16955 | 22662 ft | 388 kts | 282° |
| 2026-05-08 17:22 | 47.50529 | 18.13057 | 23049 ft | 391 kts | 282° |
| 2026-05-08 17:22 | 47.51144 | 18.09124 | 23448 ft | 393 kts | 282° |
| 2026-05-08 17:22 | 47.51767 | 18.05180 | 23805 ft | 395 kts | 282° |
| 2026-05-08 17:22 | 47.52403 | 18.01210 | 24154 ft | 397 kts | 282° |
| 2026-05-08 17:23 | 47.53039 | 17.97285 | 24523 ft | 398 kts | 282° |
| 2026-05-08 17:23 | 47.53689 | 17.93302 | 24907 ft | 399 kts | 282° |
| 2026-05-08 17:23 | 47.54344 | 17.89306 | 25294 ft | 400 kts | 282° |
| 2026-05-08 17:23 | 47.54997 | 17.85305 | 25676 ft | 400 kts | 282° |
| 2026-05-08 17:24 | 47.55779 | 17.81346 | 26056 ft | 403 kts | 289° |
| 2026-05-08 17:24 | 47.57005 | 17.77596 | 26429 ft | 407 kts | 297° |
| 2026-05-08 17:24 | 47.58453 | 17.73988 | 26786 ft | 408 kts | 297° |
| 2026-05-08 17:24 | 47.59409 | 17.71601 | 27016 ft | 409 kts | 297° |
| 2026-05-08 17:25 | 47.61352 | 17.66732 | 27480 ft | 410 kts | 297° |
| 2026-05-08 17:25 | 47.62310 | 17.64321 | 27717 ft | 411 kts | 297° |
| 2026-05-08 17:25 | 47.63764 | 17.60657 | 28062 ft | 412 kts | 296° |
| 2026-05-08 17:25 | 47.65215 | 17.56989 | 28398 ft | 413 kts | 296° |
| 2026-05-08 17:26 | 47.66670 | 17.53304 | 28735 ft | 415 kts | 296° |
| 2026-05-08 17:26 | 47.68129 | 17.49610 | 29055 ft | 416 kts | 296° |
| 2026-05-08 17:26 | 47.69593 | 17.45898 | 29392 ft | 417 kts | 296° |
| 2026-05-08 17:26 | 47.71062 | 17.42169 | 29650 ft | 420 kts | 296° |
| 2026-05-08 17:27 | 47.72540 | 17.38417 | 29930 ft | 422 kts | 296° |
| 2026-05-08 17:27 | 47.74022 | 17.34650 | 30197 ft | 423 kts | 295° |
| 2026-05-08 17:27 | 47.75505 | 17.30868 | 30425 ft | 424 kts | 295° |
| 2026-05-08 17:27 | 47.76988 | 17.27077 | 30660 ft | 426 kts | 295° |
| 2026-05-08 17:28 | 47.78477 | 17.23265 | 30910 ft | 426 kts | 295° |
| 2026-05-08 17:28 | 47.79965 | 17.19453 | 31151 ft | 426 kts | 295° |
| 2026-05-08 17:28 | 47.81452 | 17.15645 | 31450 ft | 425 kts | 295° |
| 2026-05-08 17:28 | 47.82896 | 17.11827 | 31754 ft | 421 kts | 291° |
| 2026-05-08 17:29 | 47.84007 | 17.07820 | 32042 ft | 417 kts | 285° |
| 2026-05-08 17:29 | 47.85015 | 17.03776 | 32347 ft | 416 kts | 285° |
| 2026-05-08 17:29 | 47.86025 | 16.99744 | 32654 ft | 415 kts | 285° |
| 2026-05-08 17:29 | 47.87035 | 16.95722 | 32969 ft | 414 kts | 285° |
| 2026-05-08 17:30 | 47.88038 | 16.91716 | 33286 ft | 413 kts | 285° |
| 2026-05-08 17:30 | 47.89037 | 16.87719 | 33597 ft | 411 kts | 285° |
| 2026-05-08 17:30 | 47.90035 | 16.83723 | 33906 ft | 410 kts | 285° |
| 2026-05-08 17:30 | 47.91015 | 16.79797 | 34190 ft | 409 kts | 285° |
| 2026-05-08 17:31 | 47.92002 | 16.75828 | 34414 ft | 409 kts | 285° |
| 2026-05-08 17:31 | 47.92989 | 16.71851 | 34616 ft | 409 kts | 285° |
| 2026-05-08 17:31 | 47.93991 | 16.67812 | 34820 ft | 409 kts | 285° |
| 2026-05-08 17:31 | 47.94961 | 16.63885 | 35014 ft | 410 kts | 285° |
| 2026-05-08 17:32 | 47.95957 | 16.59836 | 35215 ft | 410 kts | 285° |
| 2026-05-08 17:32 | 47.96927 | 16.55890 | 35409 ft | 411 kts | 285° |
| 2026-05-08 17:32 | 47.97913 | 16.51893 | 35593 ft | 411 kts | 286° |
| 2026-05-08 17:32 | 47.98899 | 16.47885 | 35784 ft | 411 kts | 286° |
| 2026-05-08 17:33 | 47.99879 | 16.43882 | 35970 ft | 411 kts | 286° |
| 2026-05-08 17:33 | 48.00858 | 16.39872 | 36053 ft | 410 kts | 286° |
| 2026-05-08 17:33 | 48.02803 | 16.31901 | 36067 ft | 407 kts | 286° |
| 2026-05-08 17:34 | 48.04735 | 16.23966 | 36064 ft | 406 kts | 286° |
| 2026-05-08 17:34 | 48.06650 | 16.16029 | 36067 ft | 406 kts | 285° |
| 2026-05-08 17:35 | 48.08551 | 16.08089 | 36064 ft | 406 kts | 285° |
| 2026-05-08 17:35 | 48.10464 | 16.00146 | 36066 ft | 406 kts | 286° |
| 2026-05-08 17:36 | 48.12379 | 15.92199 | 36074 ft | 406 kts | 286° |
| 2026-05-08 17:36 | 48.14282 | 15.84230 | 36065 ft | 407 kts | 285° |
| 2026-05-08 17:37 | 48.16163 | 15.76300 | 36065 ft | 407 kts | 285° |
| 2026-05-08 17:37 | 48.18051 | 15.68306 | 36065 ft | 407 kts | 285° |
| 2026-05-08 17:38 | 48.19945 | 15.60304 | 36066 ft | 408 kts | 285° |
| 2026-05-08 17:38 | 48.21836 | 15.52276 | 36073 ft | 409 kts | 285° |
| 2026-05-08 17:39 | 48.23723 | 15.44228 | 36064 ft | 410 kts | 285° |
| 2026-05-08 17:39 | 48.25609 | 15.36148 | 36059 ft | 410 kts | 285° |
| 2026-05-08 17:40 | 48.27485 | 15.28063 | 36060 ft | 411 kts | 285° |
| 2026-05-08 17:40 | 48.29357 | 15.19954 | 36078 ft | 411 kts | 285° |
| 2026-05-08 17:41 | 48.31232 | 15.11842 | 36083 ft | 411 kts | 285° |
| 2026-05-08 17:41 | 48.33090 | 15.03778 | 36077 ft | 411 kts | 284° |
| 2026-05-08 17:42 | 48.34953 | 14.95655 | 36076 ft | 411 kts | 284° |
| 2026-05-08 17:42 | 48.36806 | 14.87529 | 36073 ft | 411 kts | 284° |
| 2026-05-08 17:43 | 48.38659 | 14.79391 | 36070 ft | 411 kts | 284° |
| 2026-05-08 17:43 | 48.40495 | 14.71252 | 36086 ft | 411 kts | 284° |
| 2026-05-08 17:44 | 48.42331 | 14.63099 | 36078 ft | 411 kts | 284° |
| 2026-05-08 17:44 | 48.44167 | 14.54941 | 36079 ft | 411 kts | 284° |
| 2026-05-08 17:45 | 48.45993 | 14.46780 | 36075 ft | 411 kts | 284° |
| 2026-05-08 17:45 | 48.47816 | 14.38614 | 36081 ft | 411 kts | 284° |
| 2026-05-08 17:46 | 48.49620 | 14.30492 | 36079 ft | 411 kts | 284° |
| 2026-05-08 17:46 | 48.51429 | 14.22308 | 36072 ft | 411 kts | 284° |
| 2026-05-08 17:47 | 48.53233 | 14.14121 | 36075 ft | 412 kts | 284° |
| 2026-05-08 17:47 | 48.54730 | 14.07309 | 36076 ft | 411 kts | 284° |
| 2026-05-08 17:48 | 48.56823 | 13.97719 | 36084 ft | 411 kts | 284° |
| 2026-05-08 17:48 | 48.58607 | 13.89520 | 36084 ft | 411 kts | 284° |
| 2026-05-08 17:49 | 48.60394 | 13.81312 | 36079 ft | 411 kts | 284° |
| 2026-05-08 17:49 | 48.62174 | 13.73093 | 36083 ft | 411 kts | 283° |
| 2026-05-08 17:50 | 48.63936 | 13.64875 | 36076 ft | 411 kts | 283° |
| 2026-05-08 17:50 | 48.65677 | 13.56652 | 36088 ft | 410 kts | 282° |
| 2026-05-08 17:51 | 48.67194 | 13.48398 | 36077 ft | 409 kts | 280° |
| 2026-05-08 17:51 | 48.68598 | 13.40054 | 36077 ft | 409 kts | 280° |
| 2026-05-08 17:52 | 48.70027 | 13.31673 | 36076 ft | 410 kts | 281° |
| 2026-05-08 17:53 | 48.72205 | 13.19195 | 36075 ft | 410 kts | 281° |
| 2026-05-08 17:53 | 48.73662 | 13.10840 | 36085 ft | 410 kts | 281° |
| 2026-05-08 17:54 | 48.75105 | 13.02468 | 36080 ft | 411 kts | 281° |
| 2026-05-08 17:54 | 48.76537 | 12.94081 | 36078 ft | 411 kts | 281° |
| 2026-05-08 17:55 | 48.77976 | 12.85692 | 36079 ft | 411 kts | 281° |
| 2026-05-08 17:55 | 48.79406 | 12.77299 | 36079 ft | 411 kts | 281° |
| 2026-05-08 17:56 | 48.80825 | 12.68887 | 36083 ft | 411 kts | 281° |
| 2026-05-08 17:56 | 48.82241 | 12.60476 | 36087 ft | 412 kts | 281° |
| 2026-05-08 17:57 | 48.83650 | 12.52058 | 36083 ft | 411 kts | 281° |
| 2026-05-08 17:57 | 48.85039 | 12.43694 | 36082 ft | 411 kts | 281° |
| 2026-05-08 17:58 | 48.86435 | 12.35278 | 36091 ft | 411 kts | 281° |
| 2026-05-08 17:58 | 48.87827 | 12.26837 | 36093 ft | 412 kts | 281° |
| 2026-05-08 17:59 | 48.89286 | 12.18399 | 36085 ft | 414 kts | 284° |
| 2026-05-08 17:59 | 48.91072 | 12.10072 | 36080 ft | 415 kts | 286° |
| 2026-05-08 18:00 | 48.92952 | 12.01769 | 36079 ft | 415 kts | 285° |
| 2026-05-08 18:00 | 48.95655 | 11.89245 | 36094 ft | 416 kts | 285° |
| 2026-05-08 18:01 | 48.97411 | 11.80845 | 36082 ft | 417 kts | 285° |
| 2026-05-08 18:01 | 48.99168 | 11.72427 | 36081 ft | 418 kts | 285° |
| 2026-05-08 18:02 | 49.00640 | 11.65418 | 36081 ft | 418 kts | 285° |
| 2026-05-08 18:02 | 49.02708 | 11.55546 | 36085 ft | 418 kts | 285° |
| 2026-05-08 18:03 | 49.04453 | 11.47150 | 36087 ft | 419 kts | 285° |
| 2026-05-08 18:03 | 49.06205 | 11.38668 | 36081 ft | 420 kts | 285° |
| 2026-05-08 18:04 | 49.07950 | 11.30166 | 36076 ft | 420 kts | 285° |
| 2026-05-08 18:04 | 49.09701 | 11.21652 | 36077 ft | 421 kts | 285° |
| 2026-05-08 18:05 | 49.11445 | 11.13138 | 36085 ft | 421 kts | 285° |
| 2026-05-08 18:05 | 49.13181 | 11.04601 | 36087 ft | 421 kts | 285° |
| 2026-05-08 18:06 | 49.14913 | 10.96052 | 36112 ft | 421 kts | 285° |
| 2026-05-08 18:06 | 49.16635 | 10.87482 | 36114 ft | 422 kts | 285° |
| 2026-05-08 18:07 | 49.18352 | 10.78921 | 36143 ft | 422 kts | 285° |
| 2026-05-08 18:07 | 49.20061 | 10.70344 | 36141 ft | 421 kts | 284° |
| 2026-05-08 18:08 | 49.21634 | 10.61706 | 36160 ft | 422 kts | 283° |
| 2026-05-08 18:08 | 49.23129 | 10.53094 | 36109 ft | 422 kts | 283° |
| 2026-05-08 18:09 | 49.24646 | 10.44419 | 36116 ft | 422 kts | 283° |
| 2026-05-08 18:09 | 49.26178 | 10.35752 | 36123 ft | 422 kts | 284° |
| 2026-05-08 18:10 | 49.27711 | 10.27069 | 36116 ft | 422 kts | 283° |
| 2026-05-08 18:10 | 49.29230 | 10.18373 | 36112 ft | 422 kts | 283° |
| 2026-05-08 18:11 | 49.30738 | 10.09682 | 36108 ft | 422 kts | 283° |
| 2026-05-08 18:11 | 49.32245 | 10.00990 | 36098 ft | 422 kts | 283° |
| 2026-05-08 18:12 | 49.33748 | 9.92286 | 36094 ft | 422 kts | 283° |
| 2026-05-08 18:12 | 49.35243 | 9.83584 | 36101 ft | 422 kts | 283° |
| 2026-05-08 18:13 | 49.36728 | 9.74870 | 36096 ft | 422 kts | 283° |
| 2026-05-08 18:13 | 49.38208 | 9.66158 | 36094 ft | 422 kts | 283° |
| 2026-05-08 18:14 | 49.39677 | 9.57434 | 36091 ft | 422 kts | 283° |
| 2026-05-08 18:14 | 49.41142 | 9.48696 | 36096 ft | 423 kts | 283° |
| 2026-05-08 18:15 | 49.42443 | 9.39963 | 36095 ft | 422 kts | 279° |
| 2026-05-08 18:15 | 49.43405 | 9.31073 | 36095 ft | 422 kts | 278° |
| 2026-05-08 18:16 | 49.44293 | 9.22166 | 36094 ft | 422 kts | 278° |
| 2026-05-08 18:16 | 49.45194 | 9.13249 | 36090 ft | 422 kts | 278° |
| 2026-05-08 18:17 | 49.46110 | 9.04337 | 36084 ft | 422 kts | 278° |
| 2026-05-08 18:17 | 49.47029 | 8.95422 | 36091 ft | 422 kts | 278° |
| 2026-05-08 18:18 | 49.47942 | 8.86487 | 36090 ft | 423 kts | 278° |
| 2026-05-08 18:18 | 49.48841 | 8.77557 | 36094 ft | 423 kts | 278° |
| 2026-05-08 18:19 | 49.49736 | 8.68618 | 36097 ft | 423 kts | 278° |
| 2026-05-08 18:19 | 49.50619 | 8.59685 | 36093 ft | 423 kts | 277° |
| 2026-05-08 18:20 | 49.51495 | 8.50746 | 36096 ft | 423 kts | 277° |
| 2026-05-08 18:20 | 49.52361 | 8.41799 | 36085 ft | 422 kts | 277° |
| 2026-05-08 18:21 | 49.53076 | 8.34367 | 36082 ft | 422 kts | 277° |
| 2026-05-08 18:21 | 49.53937 | 8.25430 | 36090 ft | 422 kts | 277° |
| 2026-05-08 18:22 | 49.54789 | 8.16495 | 36082 ft | 422 kts | 277° |
| 2026-05-08 18:22 | 49.55628 | 8.07543 | 36089 ft | 422 kts | 277° |
| 2026-05-08 18:23 | 49.56463 | 7.98597 | 36081 ft | 422 kts | 277° |
| 2026-05-08 18:23 | 49.57296 | 7.89638 | 36080 ft | 422 kts | 277° |
| 2026-05-08 18:24 | 49.58119 | 7.80682 | 36076 ft | 422 kts | 277° |
| 2026-05-08 18:24 | 49.58930 | 7.71774 | 36076 ft | 422 kts | 277° |
| 2026-05-08 18:25 | 49.59744 | 7.62813 | 36083 ft | 422 kts | 277° |
| 2026-05-08 18:25 | 49.60549 | 7.53845 | 36075 ft | 422 kts | 277° |
| 2026-05-08 18:26 | 49.61337 | 7.44887 | 36095 ft | 422 kts | 277° |
| 2026-05-08 18:26 | 49.62123 | 7.35919 | 36084 ft | 422 kts | 277° |
| 2026-05-08 18:27 | 49.62777 | 7.28456 | 36091 ft | 422 kts | 277° |
| 2026-05-08 18:27 | 49.63676 | 7.17970 | 36091 ft | 422 kts | 277° |
| 2026-05-08 18:28 | 49.64442 | 7.08979 | 36089 ft | 423 kts | 277° |
| 2026-05-08 18:28 | 49.65208 | 6.99983 | 36085 ft | 423 kts | 277° |
| 2026-05-08 18:29 | 49.65971 | 6.90979 | 36089 ft | 423 kts | 277° |
| 2026-05-08 18:29 | 49.66722 | 6.81970 | 36090 ft | 423 kts | 277° |
| 2026-05-08 18:30 | 49.67466 | 6.72978 | 36079 ft | 423 kts | 277° |
| 2026-05-08 18:30 | 49.68195 | 6.64027 | 36083 ft | 423 kts | 277° |
| 2026-05-08 18:31 | 49.68917 | 6.55013 | 36087 ft | 423 kts | 277° |
| 2026-05-08 18:31 | 49.69634 | 6.45993 | 36084 ft | 423 kts | 277° |
| 2026-05-08 18:32 | 49.70351 | 6.36980 | 36083 ft | 423 kts | 277° |
| 2026-05-08 18:32 | 49.71057 | 6.27969 | 36088 ft | 423 kts | 277° |
| 2026-05-08 18:33 | 49.71748 | 6.18951 | 36100 ft | 423 kts | 277° |
| 2026-05-08 18:33 | 49.72438 | 6.09921 | 36101 ft | 423 kts | 277° |
| 2026-05-08 18:34 | 49.73122 | 6.00895 | 36092 ft | 423 kts | 277° |
| 2026-05-08 18:34 | 49.73782 | 5.91863 | 36086 ft | 423 kts | 273° |
| 2026-05-08 18:35 | 49.73195 | 5.82919 | 36084 ft | 424 kts | 255° |
| 2026-05-08 18:35 | 49.71212 | 5.74259 | 36081 ft | 425 kts | 252° |
| 2026-05-08 18:36 | 49.69230 | 5.65730 | 36076 ft | 425 kts | 252° |
| 2026-05-08 18:36 | 49.67228 | 5.57137 | 36084 ft | 425 kts | 252° |
| 2026-05-08 18:37 | 49.65209 | 5.48534 | 35929 ft | 433 kts | 252° |
| 2026-05-08 18:37 | 49.64165 | 5.44113 | 35684 ft | 443 kts | 252° |
| 2026-05-08 18:37 | 49.63107 | 5.39631 | 35434 ft | 445 kts | 252° |
| 2026-05-08 18:38 | 49.62055 | 5.35143 | 35179 ft | 445 kts | 253° |
| 2026-05-08 18:38 | 49.61054 | 5.30656 | 34763 ft | 439 kts | 255° |
| 2026-05-08 18:38 | 49.60105 | 5.26214 | 34189 ft | 434 kts | 256° |
| 2026-05-08 18:38 | 49.59396 | 5.21741 | 33540 ft | 426 kts | 265° |
| 2026-05-08 18:39 | 49.59176 | 5.17244 | 32979 ft | 417 kts | 273° |
| 2026-05-08 18:39 | 49.59232 | 5.12812 | 32419 ft | 412 kts | 274° |
| 2026-05-08 18:39 | 49.59276 | 5.08413 | 31866 ft | 408 kts | 273° |
| 2026-05-08 18:39 | 49.59302 | 5.04062 | 31316 ft | 405 kts | 271° |
| 2026-05-08 18:40 | 49.58984 | 4.99737 | 30992 ft | 408 kts | 264° |
| 2026-05-08 18:40 | 49.58561 | 4.95412 | 30746 ft | 409 kts | 264° |
| 2026-05-08 18:40 | 49.58146 | 4.91076 | 30474 ft | 408 kts | 266° |
| 2026-05-08 18:40 | 49.57736 | 4.86764 | 30228 ft | 406 kts | 266° |
| 2026-05-08 18:41 | 49.57325 | 4.82496 | 29836 ft | 400 kts | 266° |
| 2026-05-08 18:41 | 49.56913 | 4.78296 | 29322 ft | 393 kts | 266° |
| 2026-05-08 18:41 | 49.56509 | 4.74168 | 28850 ft | 387 kts | 265° |
| 2026-05-08 18:41 | 49.56110 | 4.70109 | 28366 ft | 380 kts | 265° |
| 2026-05-08 18:42 | 49.55714 | 4.66116 | 27889 ft | 373 kts | 265° |
| 2026-05-08 18:42 | 49.55322 | 4.62200 | 27441 ft | 367 kts | 264° |
| 2026-05-08 18:42 | 49.54936 | 4.58351 | 26998 ft | 363 kts | 264° |
| 2026-05-08 18:42 | 49.54558 | 4.54565 | 26573 ft | 361 kts | 264° |
| 2026-05-08 18:43 | 49.54174 | 4.50702 | 26143 ft | 360 kts | 264° |
| 2026-05-08 18:43 | 49.53798 | 4.46958 | 25730 ft | 358 kts | 264° |
| 2026-05-08 18:43 | 49.53414 | 4.43169 | 25323 ft | 357 kts | 264° |
| 2026-05-08 18:43 | 49.53030 | 4.39399 | 24917 ft | 356 kts | 264° |
| 2026-05-08 18:44 | 49.52645 | 4.35644 | 24516 ft | 355 kts | 263° |
| 2026-05-08 18:44 | 49.52257 | 4.31895 | 24115 ft | 354 kts | 263° |
| 2026-05-08 18:44 | 49.51871 | 4.28161 | 23697 ft | 353 kts | 262° |
| 2026-05-08 18:44 | 49.51489 | 4.24444 | 23229 ft | 351 kts | 262° |
| 2026-05-08 18:45 | 49.51111 | 4.20746 | 22811 ft | 349 kts | 262° |
| 2026-05-08 18:45 | 49.50735 | 4.17065 | 22406 ft | 347 kts | 262° |
| 2026-05-08 18:45 | 49.50357 | 4.13410 | 21985 ft | 345 kts | 262° |
| 2026-05-08 18:45 | 49.49978 | 4.09785 | 21568 ft | 342 kts | 262° |
| 2026-05-08 18:46 | 49.49577 | 4.06191 | 21153 ft | 344 kts | 257° |
| 2026-05-08 18:46 | 49.48892 | 4.02571 | 20827 ft | 358 kts | 253° |
| 2026-05-08 18:46 | 49.48149 | 3.98885 | 20565 ft | 361 kts | 253° |
| 2026-05-08 18:46 | 49.47393 | 3.95207 | 20307 ft | 360 kts | 253° |
| 2026-05-08 18:47 | 49.46635 | 3.91550 | 20059 ft | 359 kts | 253° |
| 2026-05-08 18:47 | 49.45877 | 3.87903 | 19810 ft | 357 kts | 253° |
| 2026-05-08 18:47 | 49.45125 | 3.84278 | 19564 ft | 354 kts | 253° |
| 2026-05-08 18:47 | 49.44382 | 3.80681 | 19317 ft | 352 kts | 253° |
| 2026-05-08 18:48 | 49.43644 | 3.77106 | 19072 ft | 350 kts | 253° |
| 2026-05-08 18:48 | 49.42908 | 3.73545 | 18830 ft | 349 kts | 252° |
| 2026-05-08 18:48 | 49.42171 | 3.69998 | 18593 ft | 348 kts | 252° |
| 2026-05-08 18:48 | 49.41434 | 3.66472 | 18352 ft | 346 kts | 252° |
| 2026-05-08 18:49 | 49.40711 | 3.63008 | 18083 ft | 345 kts | 252° |
| 2026-05-08 18:49 | 49.39984 | 3.59507 | 17812 ft | 343 kts | 252° |
| 2026-05-08 18:49 | 49.39260 | 3.56026 | 17550 ft | 342 kts | 252° |
| 2026-05-08 18:49 | 49.38533 | 3.52555 | 17284 ft | 341 kts | 252° |
| 2026-05-08 18:50 | 49.37807 | 3.49104 | 17022 ft | 340 kts | 252° |
| 2026-05-08 18:50 | 49.37080 | 3.45658 | 16759 ft | 338 kts | 252° |
| 2026-05-08 18:50 | 49.36363 | 3.42235 | 16500 ft | 337 kts | 252° |
| 2026-05-08 18:50 | 49.35649 | 3.38828 | 16248 ft | 335 kts | 252° |
| 2026-05-08 18:51 | 49.34933 | 3.35431 | 15992 ft | 334 kts | 252° |
| 2026-05-08 18:51 | 49.34215 | 3.32043 | 15727 ft | 333 kts | 252° |
| 2026-05-08 18:51 | 49.33502 | 3.28679 | 15490 ft | 331 kts | 251° |
| 2026-05-08 18:51 | 49.32791 | 3.25331 | 15245 ft | 330 kts | 251° |
| 2026-05-08 18:52 | 49.32082 | 3.21987 | 14989 ft | 329 kts | 251° |
| 2026-05-08 18:52 | 49.31375 | 3.18660 | 14743 ft | 328 kts | 251° |
| 2026-05-08 18:52 | 49.30667 | 3.15346 | 14503 ft | 326 kts | 251° |
| 2026-05-08 18:52 | 49.29960 | 3.12045 | 14252 ft | 325 kts | 251° |
| 2026-05-08 18:53 | 49.29258 | 3.08764 | 14024 ft | 324 kts | 251° |
| 2026-05-08 18:53 | 49.28556 | 3.05488 | 13776 ft | 323 kts | 251° |
| 2026-05-08 18:53 | 49.27856 | 3.02226 | 13503 ft | 321 kts | 251° |
| 2026-05-08 18:53 | 49.27157 | 2.98985 | 13237 ft | 320 kts | 251° |
| 2026-05-08 18:54 | 49.26459 | 2.95759 | 12966 ft | 318 kts | 251° |
| 2026-05-08 18:54 | 49.25767 | 2.92559 | 12705 ft | 315 kts | 251° |
| 2026-05-08 18:54 | 49.25081 | 2.89382 | 12441 ft | 313 kts | 251° |
| 2026-05-08 18:54 | 49.24400 | 2.86220 | 12182 ft | 312 kts | 251° |
| 2026-05-08 18:55 | 49.23055 | 2.79997 | 11673 ft | 309 kts | 251° |
| 2026-05-08 18:55 | 49.22381 | 2.76890 | 11422 ft | 307 kts | 251° |
| 2026-05-08 18:55 | 49.21707 | 2.73800 | 11173 ft | 305 kts | 251° |
| 2026-05-08 18:56 | 49.21035 | 2.70723 | 11041 ft | 304 kts | 251° |
| 2026-05-08 18:56 | 49.20385 | 2.67651 | 11052 ft | 305 kts | 254° |
| 2026-05-08 18:56 | 49.19903 | 2.64491 | 11004 ft | 306 kts | 257° |
| 2026-05-08 18:56 | 49.19448 | 2.61316 | 10751 ft | 305 kts | 257° |
| 2026-05-08 18:57 | 49.18992 | 2.58156 | 10511 ft | 303 kts | 257° |
| 2026-05-08 18:57 | 49.18688 | 2.56052 | 10341 ft | 296 kts | 257° |
| 2026-05-08 18:57 | 49.18113 | 2.52075 | 10019 ft | 283 kts | 257° |
| 2026-05-08 18:57 | 49.17692 | 2.49165 | 9751 ft | 278 kts | 257° |
| 2026-05-08 18:58 | 49.17275 | 2.46280 | 9492 ft | 277 kts | 257° |
| 2026-05-08 18:58 | 49.16863 | 2.43413 | 9233 ft | 277 kts | 257° |
| 2026-05-08 18:58 | 49.16449 | 2.40541 | 8908 ft | 276 kts | 257° |
| 2026-05-08 18:58 | 49.16041 | 2.37684 | 8517 ft | 275 kts | 257° |
| 2026-05-08 18:59 | 49.15638 | 2.34843 | 8123 ft | 274 kts | 257° |
| 2026-05-08 18:59 | 49.15235 | 2.31997 | 7678 ft | 273 kts | 257° |
| 2026-05-08 18:59 | 49.14839 | 2.29166 | 7219 ft | 272 kts | 256° |
| 2026-05-08 18:59 | 49.14080 | 2.26568 | 6778 ft | 268 kts | 230° |
| 2026-05-08 19:00 | 49.13250 | 2.25176 | 6487 ft | 268 kts | 224° |
| 2026-05-08 19:00 | 49.11447 | 2.22533 | 5874 ft | 269 kts | 222° |
| 2026-05-08 19:00 | 49.10090 | 2.20577 | 5407 ft | 268 kts | 222° |
| 2026-05-08 19:00 | 49.08739 | 2.18628 | 4952 ft | 268 kts | 222° |
| 2026-05-08 19:01 | 49.07400 | 2.16689 | 4625 ft | 263 kts | 222° |
| 2026-05-08 19:01 | 49.06111 | 2.14826 | 4365 ft | 256 kts | 220° |
| 2026-05-08 19:01 | 49.04611 | 2.13502 | 4120 ft | 245 kts | 191° |
| 2026-05-08 19:01 | 49.02976 | 2.13164 | 4004 ft | 232 kts | 179° |
| 2026-05-08 19:02 | 49.01487 | 2.13751 | 4005 ft | 220 kts | 144° |
| 2026-05-08 19:02 | 49.00531 | 2.15476 | 4005 ft | 215 kts | 106° |
| 2026-05-08 19:02 | 49.00485 | 2.17696 | 4012 ft | 215 kts | 82° |
| 2026-05-08 19:02 | 49.00654 | 2.19945 | 4031 ft | 216 kts | 84° |
| 2026-05-08 19:03 | 49.00788 | 2.22136 | 4004 ft | 201 kts | 84° |
| 2026-05-08 19:03 | 49.00907 | 2.24229 | 3947 ft | 198 kts | 84° |
| 2026-05-08 19:03 | 49.01025 | 2.26317 | 3758 ft | 194 kts | 84° |
| 2026-05-08 19:03 | 49.01136 | 2.28295 | 3520 ft | 185 kts | 84° |
| 2026-05-08 19:04 | 49.01244 | 2.30223 | 3278 ft | 178 kts | 84° |
| 2026-05-08 19:04 | 49.01348 | 2.32073 | 3037 ft | 172 kts | 84° |
| 2026-05-08 19:04 | 49.01448 | 2.33863 | 2813 ft | 167 kts | 84° |
| 2026-05-08 19:04 | 49.01545 | 2.35600 | 2599 ft | 161 kts | 84° |
| 2026-05-08 19:05 | 49.01636 | 2.37240 | 2384 ft | 151 kts | 84° |
| 2026-05-08 19:05 | 49.01723 | 2.38819 | 2186 ft | 148 kts | 84° |
| 2026-05-08 19:05 | 49.01806 | 2.40324 | 1991 ft | 139 kts | 84° |
| 2026-05-08 19:05 | 49.01886 | 2.41766 | 1807 ft | 135 kts | 84° |
| 2026-05-08 19:06 | 49.01964 | 2.43188 | 1633 ft | 134 kts | 84° |
| 2026-05-08 19:06 | 49.02040 | 2.44598 | 1448 ft | 133 kts | 85° |
| 2026-05-08 19:06 | 49.02121 | 2.46010 | 1255 ft | 134 kts | 83° |
| 2026-05-08 19:06 | 49.02196 | 2.47422 | 1088 ft | 134 kts | 85° |
| 2026-05-08 19:07 | 49.02263 | 2.48837 | 909 ft | 133 kts | 83° |
| 2026-05-08 19:07 | 49.02347 | 2.50241 | 725 ft | 134 kts | 82° |
| 2026-05-08 19:07 | 49.02420 | 2.51642 | 522 ft | 131 kts | 83° |
| 2026-05-08 19:07 | 49.02500 | 2.53019 | 364 ft | 128 kts | 83° |
| 2026-05-08 19:08 | 49.02562 | 2.54140 | 354 ft | 68 kts | 85° |
| 2026-05-08 19:08 | 49.02588 | 2.54646 | 352 ft | 43 kts | 85° |
| 2026-05-08 19:08 | 49.02606 | 2.55075 | 354 ft | 36 kts | 94° |
| 2026-05-08 19:08 | 49.02531 | 2.55416 | 363 ft | 31 kts | 116° |
| 2026-05-08 19:09 | 49.02476 | 2.55632 | 361 ft | 19 kts | 99° |
| 2026-05-08 19:09 | 49.02480 | 2.55830 | 355 ft | 18 kts | 85° |
| 2026-05-08 19:09 | 49.02491 | 2.56021 | 355 ft | 18 kts | 86° |
| 2026-05-08 19:09 | 49.02431 | 2.56155 | 359 ft | 16 kts | 167° |
| 2026-05-08 19:10 | 49.02321 | 2.56180 | 357 ft | 16 kts | 163° |
| 2026-05-08 19:10 | 49.02239 | 2.56275 | 357 ft | 13 kts | 143° |
| 2026-05-08 19:10 | 49.02160 | 2.56308 | 355 ft | 12 kts | 175° |
| 2026-05-08 19:10 | 49.02084 | 2.56318 | 355 ft | 11 kts | 174° |
| 2026-05-08 19:11 | 49.02029 | 2.56382 | 357 ft | 10 kts | 117° |
| 2026-05-08 19:11 | 49.02028 | 2.56534 | 358 ft | 22 kts | 85° |
| 2026-05-08 19:11 | 49.02041 | 2.56778 | 357 ft | 23 kts | 85° |
| 2026-05-08 19:11 | 49.02055 | 2.57016 | 355 ft | 21 kts | 85° |
| 2026-05-08 19:12 | 49.02067 | 2.57239 | 355 ft | 21 kts | 85° |
| 2026-05-08 19:12 | 49.02079 | 2.57465 | 361 ft | 22 kts | 84° |
| 2026-05-08 19:12 | 49.02089 | 2.57694 | 355 ft | 22 kts | 87° |
| 2026-05-08 19:12 | 49.02058 | 2.57902 | 357 ft | 20 kts | 117° |
| 2026-05-08 19:13 | 49.01964 | 2.58057 | 363 ft | 20 kts | 148° |
| 2026-05-08 19:13 | 49.01833 | 2.58121 | 358 ft | 20 kts | 174° |
| 2026-05-08 19:13 | 49.01697 | 2.58140 | 358 ft | 20 kts | 176° |
| 2026-05-08 19:13 | 49.01562 | 2.58155 | 355 ft | 19 kts | 176° |
| 2026-05-08 19:14 | 49.01434 | 2.58170 | 355 ft | 18 kts | 174° |
| 2026-05-08 19:14 | 49.01314 | 2.58189 | 359 ft | 17 kts | 173° |
| 2026-05-08 19:14 | 49.01212 | 2.58203 | 355 ft | 9 kts | 176° |
| 2026-05-08 19:14 | 49.01172 | 2.58207 | 358 ft | 3 kts | 176° |
| 2026-05-08 19:15 | 49.01157 | 2.58209 | 355 ft | 7 kts | 175° |
| 2026-05-08 19:15 | 49.01086 | 2.58216 | 357 ft | 19 kts | 176° |
| 2026-05-08 19:15 | 49.00966 | 2.58226 | 357 ft | 14 kts | 188° |
| 2026-05-08 19:15 | 49.00911 | 2.58120 | 360 ft | 15 kts | 261° |
| 2026-05-08 19:16 | 49.00901 | 2.57974 | 355 ft | 12 kts | 265° |
| 2026-05-08 19:16 | 49.00893 | 2.57847 | 363 ft | 10 kts | 265° |
| 2026-05-08 19:16 | 49.00881 | 2.57760 | 359 ft | 7 kts | 243° |
| 2026-05-08 19:16 | 49.00876 | 2.57751 | 357 ft | 3 kts | 232° |
| 2026-05-08 19:17 | 49.00863 | 2.57740 | 357 ft | 0 kts | 204° |
| 2026-05-08 19:17 | 49.00840 | 2.57732 | 358 ft | 3 kts | 188° |
| 2026-05-08 19:17 | 49.00796 | 2.57699 | 358 ft | 7 kts | 214° |
| 2026-05-08 19:17 | 49.00763 | 2.57656 | 361 ft | 6 kts | 225° |
| 2026-05-08 19:18 | 49.00736 | 2.57612 | 359 ft | 5 kts | 227° |
| 2026-05-08 19:18 | 49.00717 | 2.57570 | 360 ft | 4 kts | 244° |
| 2026-05-08 19:18 | 49.00709 | 2.57542 | 364 ft | 2 kts | 244° |
| 2026-05-08 19:18 | 49.00708 | 2.57542 | 364 ft | 0 kts | 244° |